createdAt,value
2023-02-28T00:00:22.891Z,0.99
2023-02-28T00:03:10.844Z,0.97
2023-02-28T00:05:38.570Z,1.14
2023-02-28T00:08:06.552Z,1.12
2023-02-28T00:10:34.370Z,1.09
2023-02-28T00:13:05.227Z,0.97
2023-02-28T00:15:34.678Z,0.75
2023-02-28T00:18:03.611Z,0.72
2023-02-28T00:20:31.151Z,0.83
2023-02-28T00:22:59.105Z,0.85
2023-02-28T00:25:27.001Z,0.93
2023-02-28T00:27:55.106Z,0.93
2023-02-28T00:30:24.050Z,0.98
2023-02-28T00:32:53.384Z,0.88
2023-02-28T00:35:20.962Z,1.04
2023-02-28T00:37:49.744Z,1.07
2023-02-28T00:40:17.568Z,1.03
2023-02-28T00:42:46.311Z,1.20
2023-02-28T00:45:13.974Z,1.14
2023-02-28T00:47:42.046Z,0.94
2023-02-28T00:50:12.591Z,0.88
2023-02-28T00:52:40.653Z,1.14
2023-02-28T00:55:08.978Z,1.27
2023-02-28T00:57:39.375Z,1.31
2023-02-28T01:00:08.399Z,1.49
2023-02-28T01:02:36.443Z,1.49
2023-02-28T01:05:04.655Z,1.38
2023-02-28T01:07:34.253Z,1.12
2023-02-28T01:10:01.882Z,1.09
2023-02-28T01:12:31.018Z,1.16
2023-02-28T01:14:59.143Z,1.09
2023-02-28T01:17:27.342Z,1.21
2023-02-28T01:19:55.637Z,1.24
2023-02-28T01:22:23.977Z,1.12
2023-02-28T01:24:53.442Z,1.15
2023-02-28T01:27:21.526Z,1.12
2023-02-28T01:29:49.027Z,0.97
2023-02-28T01:32:17.250Z,0.83
2023-02-28T01:34:44.893Z,0.94
2023-02-28T01:37:12.881Z,1.06
2023-02-28T01:39:40.748Z,0.98
2023-02-28T01:42:11.586Z,0.93
2023-02-28T01:45:02.119Z,0.92
2023-02-28T01:47:33.579Z,1.01
2023-02-28T01:50:05.950Z,1.06
2023-02-28T01:52:35.046Z,1.23
2023-02-28T01:55:05.850Z,1.07
2023-02-28T01:57:43.794Z,0.99
2023-02-28T02:00:14.553Z,0.90
2023-02-28T02:02:44.516Z,1.07
2023-02-28T02:05:15.663Z,1.05
2023-02-28T02:07:46.569Z,0.83
2023-02-28T02:10:15.907Z,0.94
2023-02-28T02:13:09.610Z,1.06
2023-02-28T02:15:43.584Z,1.07
2023-02-28T02:18:20.086Z,1.22
2023-02-28T02:21:22.760Z,1.21
2023-02-28T02:24:33.073Z,0.88
2023-02-28T02:27:26.705Z,0.84
2023-02-28T02:30:29.410Z,0.80
2023-02-28T02:33:11.479Z,0.96
2023-02-28T02:35:48.305Z,1.05
2023-02-28T02:38:24.403Z,0.84
2023-02-28T02:41:00.807Z,0.84
2023-02-28T02:43:34.205Z,0.87
2023-02-28T02:46:07.506Z,0.93
2023-02-28T02:48:39.629Z,0.96
2023-02-28T02:51:14.240Z,0.98
2023-02-28T02:53:47.566Z,0.93
2023-02-28T02:56:18.099Z,1.11
2023-02-28T02:58:51.613Z,1.06
2023-02-28T03:01:23.155Z,0.82
2023-02-28T03:03:51.175Z,0.91
2023-02-28T03:06:20.650Z,0.96
2023-02-28T03:08:48.522Z,1.07
2023-02-28T03:11:16.769Z,1.13
2023-02-28T03:13:59.855Z,1.00
2023-02-28T03:16:37.023Z,0.93
2023-02-28T03:19:18.026Z,0.92
2023-02-28T03:21:57.509Z,1.01
2023-02-28T03:24:32.734Z,1.04
2023-02-28T03:27:08.527Z,0.75
2023-02-28T03:29:40.467Z,0.82
2023-02-28T03:32:16.920Z,0.98
2023-02-28T03:34:52.112Z,1.15
2023-02-28T03:37:25.184Z,1.24
2023-02-28T03:39:58.200Z,1.22
2023-02-28T03:42:29.887Z,1.21
2023-02-28T03:45:01.765Z,1.30
2023-02-28T03:47:34.932Z,1.18
2023-02-28T03:50:08.886Z,1.06
2023-02-28T03:52:42.034Z,1.10
2023-02-28T03:55:14.034Z,0.71
2023-02-28T03:57:48.802Z,0.85
2023-02-28T04:00:21.183Z,0.97
2023-02-28T04:02:49.624Z,0.95
2023-02-28T04:05:17.443Z,0.96
2023-02-28T04:07:46.957Z,0.91
2023-02-28T04:10:15.297Z,0.99
2023-02-28T04:12:43.343Z,0.89
2023-02-28T04:15:11.279Z,0.87
2023-02-28T04:17:39.258Z,0.45
2023-02-28T04:20:08.004Z,0.81
2023-02-28T04:22:36.389Z,0.91
2023-02-28T04:25:07.312Z,0.92
2023-02-28T04:27:35.557Z,1.00
2023-02-28T04:30:03.285Z,0.86
2023-02-28T04:32:31.376Z,0.97
2023-02-28T04:34:58.964Z,0.86
2023-02-28T04:37:26.890Z,0.97
2023-02-28T04:39:54.386Z,1.13
2023-02-28T04:42:23.780Z,1.21
2023-02-28T04:44:51.358Z,1.15
2023-02-28T04:47:19.590Z,1.12
2023-02-28T04:49:47.204Z,1.10
2023-02-28T04:52:15.104Z,1.15
2023-02-28T04:54:42.671Z,1.30
2023-02-28T04:57:10.774Z,1.24
2023-02-28T04:59:40.076Z,1.10
2023-02-28T05:02:08.441Z,1.14
2023-02-28T05:04:36.718Z,1.12
2023-02-28T05:07:04.918Z,1.18
2023-02-28T05:09:32.513Z,1.15
2023-02-28T05:12:00.535Z,1.28
2023-02-28T05:14:28.074Z,1.23
2023-02-28T05:16:57.911Z,1.25
2023-02-28T05:19:25.552Z,1.21
2023-02-28T05:21:55.262Z,1.29
2023-02-28T05:24:22.876Z,1.24
2023-02-28T05:26:53.436Z,1.25
2023-02-28T05:29:21.140Z,1.33
2023-02-28T05:31:49.720Z,1.27
2023-02-28T05:34:19.033Z,1.27
2023-02-28T05:36:47.230Z,0.87
2023-02-28T05:39:14.784Z,0.76
2023-02-28T05:41:43.426Z,0.85
2023-02-28T05:44:11.774Z,0.84
2023-02-28T05:46:39.751Z,0.88
2023-02-28T05:49:07.789Z,0.99
2023-02-28T05:51:37.463Z,0.94
2023-02-28T05:54:05.369Z,0.89
2023-02-28T05:56:34.242Z,0.54
2023-02-28T05:59:03.347Z,0.58
2023-02-28T06:01:39.135Z,0.83
2023-02-28T06:04:14.297Z,0.76
2023-02-28T06:06:49.961Z,0.97
2023-02-28T06:09:17.878Z,1.21
2023-02-28T06:11:46.380Z,1.19
2023-02-28T06:14:16.546Z,1.22
2023-02-28T06:16:48.240Z,1.38
2023-02-28T06:19:16.344Z,1.55
2023-02-28T06:21:44.480Z,1.42
2023-02-28T06:24:13.590Z,1.32
2023-02-28T06:26:41.919Z,1.54
2023-02-28T06:29:09.649Z,1.71
2023-02-28T06:31:37.846Z,1.62
2023-02-28T06:34:06.151Z,1.01
2023-02-28T06:36:34.978Z,0.49
2023-02-28T06:39:02.642Z,0.40
2023-02-28T06:41:44.469Z,0.32
2023-02-28T06:44:19.862Z,0.55
2023-02-28T06:46:48.624Z,0.74
2023-02-28T06:49:16.642Z,0.91
2023-02-28T06:51:46.148Z,1.28
2023-02-28T06:54:14.739Z,1.36
2023-02-28T06:56:44.358Z,1.44
2023-02-28T06:59:12.162Z,1.62
2023-02-28T07:01:40.822Z,1.73
2023-02-28T07:04:08.714Z,1.77
2023-02-28T07:06:37.056Z,2.03
2023-02-28T07:09:10.971Z,2.05
2023-02-28T07:11:39.004Z,2.11
2023-02-28T07:14:08.725Z,2.46
2023-02-28T07:16:37.993Z,2.56
2023-02-28T07:19:05.686Z,2.73
2023-02-28T07:21:34.312Z,2.93
2023-02-28T07:24:02.172Z,3.31
2023-02-28T07:26:30.282Z,3.56
2023-02-28T07:28:57.845Z,3.83
2023-02-28T07:31:27.517Z,4.07
2023-02-28T07:33:57.682Z,4.13
2023-02-28T07:36:25.907Z,4.10
2023-02-28T07:38:53.524Z,4.24
2023-02-28T07:41:23.181Z,3.95
2023-02-28T07:43:51.343Z,3.87
2023-02-28T07:46:19.633Z,3.92
2023-02-28T07:49:03.640Z,3.84
2023-02-28T07:51:43.650Z,3.87
2023-02-28T07:54:12.977Z,4.05
2023-02-28T07:56:40.944Z,4.31
2023-02-28T07:59:15.419Z,4.14
2023-02-28T08:01:55.742Z,4.28
2023-02-28T08:04:27.865Z,4.12
2023-02-28T08:06:56.105Z,3.88
2023-02-28T08:09:23.700Z,4.04
2023-02-28T08:11:51.676Z,4.07
2023-02-28T08:14:19.301Z,3.97
2023-02-28T08:16:47.380Z,3.72
2023-02-28T08:19:15.092Z,3.55
2023-02-28T08:21:45.054Z,3.67
2023-02-28T08:24:12.747Z,4.03
2023-02-28T08:26:41.370Z,4.13
2023-02-28T08:29:09.840Z,3.76
2023-02-28T08:31:39.929Z,3.94
2023-02-28T08:34:16.481Z,4.15
2023-02-28T08:36:49.937Z,4.13
2023-02-28T08:39:17.610Z,3.75
2023-02-28T08:41:46.852Z,4.57
2023-02-28T08:44:18.301Z,4.78
2023-02-28T08:46:46.440Z,4.31
2023-02-28T08:49:14.002Z,4.84
2023-02-28T08:51:41.907Z,4.95
2023-02-28T08:54:11.091Z,5.33
2023-02-28T08:56:39.628Z,5.42
2023-02-28T08:59:07.546Z,4.81
2023-02-28T09:01:35.546Z,4.95
2023-02-28T09:04:03.282Z,5.53
2023-02-28T09:06:33.026Z,5.41
2023-02-28T09:09:00.631Z,5.43
2023-02-28T09:11:30.398Z,5.41
2023-02-28T09:13:58.969Z,5.96
2023-02-28T09:16:27.509Z,6.57
2023-02-28T09:18:55.053Z,6.84
2023-02-28T09:21:23.624Z,6.93
2023-02-28T09:23:57.643Z,7.13
2023-02-28T09:26:35.278Z,7.31
2023-02-28T09:29:11.050Z,7.96
2023-02-28T09:31:39.068Z,8.39
2023-02-28T09:34:13.046Z,8.18
2023-02-28T09:36:48.289Z,8.07
2023-02-28T09:39:17.920Z,8.26
2023-02-28T09:42:03.553Z,8.37
2023-02-28T09:44:48.916Z,8.87
2023-02-28T09:47:44.397Z,8.36
2023-02-28T09:50:31.490Z,7.63
2023-02-28T09:53:11.492Z,7.17
2023-02-28T09:55:47.184Z,7.18
2023-02-28T09:58:25.233Z,6.64
2023-02-28T10:01:00.028Z,7.28
2023-02-28T10:03:33.750Z,7.96
2023-02-28T10:06:08.897Z,8.19
2023-02-28T10:08:42.440Z,8.74
2023-02-28T10:11:13.353Z,8.76
2023-02-28T10:13:52.360Z,9.16
2023-02-28T10:16:27.028Z,9.35
2023-02-28T10:18:58.785Z,9.65
2023-02-28T10:21:32.828Z,9.78
2023-02-28T10:24:08.957Z,9.58
2023-02-28T10:26:38.022Z,10.00
2023-02-28T10:29:09.921Z,10.29
2023-02-28T10:31:37.747Z,9.94
2023-02-28T10:34:05.949Z,9.84
2023-02-28T10:36:35.909Z,9.72
2023-02-28T10:39:38.047Z,9.20
2023-02-28T10:42:11.223Z,8.86
2023-02-28T10:44:41.139Z,8.94
2023-02-28T10:47:16.142Z,9.21
2023-02-28T10:49:48.872Z,9.16
2023-02-28T10:52:34.653Z,9.06
2023-02-28T10:55:21.041Z,9.06
2023-02-28T10:57:50.909Z,8.89
2023-02-28T11:00:23.104Z,8.82
2023-02-28T11:02:50.752Z,9.11
2023-02-28T11:05:28.279Z,9.01
2023-02-28T11:07:58.063Z,8.62
2023-02-28T11:10:30.553Z,8.25
2023-02-28T11:13:00.893Z,8.34
2023-02-28T11:15:33.604Z,8.30
2023-02-28T11:18:06.666Z,8.59
2023-02-28T11:20:35.749Z,7.93
2023-02-28T11:23:05.465Z,7.35
2023-02-28T11:25:36.036Z,7.62
2023-02-28T11:28:06.047Z,7.84
2023-02-28T11:30:37.859Z,8.07
2023-02-28T11:33:24.097Z,8.03
2023-02-28T11:35:56.720Z,8.01
2023-02-28T11:38:24.797Z,8.09
2023-02-28T11:41:06.683Z,8.36
2023-02-28T11:43:47.072Z,8.68
2023-02-28T11:46:30.377Z,9.17
2023-02-28T11:49:08.226Z,9.01
2023-02-28T11:51:47.974Z,9.00
2023-02-28T11:55:03.047Z,8.57
2023-02-28T11:58:06.462Z,8.99
2023-02-28T12:00:50.794Z,8.94
2023-02-28T12:03:29.250Z,9.29
2023-02-28T12:06:04.120Z,9.38
2023-02-28T12:08:48.046Z,9.02
2023-02-28T12:11:28.501Z,9.17
2023-02-28T12:14:10.964Z,9.15
2023-02-28T12:16:51.643Z,9.55
2023-02-28T12:19:26.778Z,9.87
2023-02-28T12:22:18.454Z,9.87
2023-02-28T12:25:14.498Z,9.82
2023-02-28T12:27:46.644Z,10.01
2023-02-28T12:30:20.589Z,10.31
2023-02-28T12:32:52.668Z,10.36
2023-02-28T12:35:26.424Z,10.15
2023-02-28T12:37:58.822Z,9.87
2023-02-28T12:40:33.535Z,10.17
2023-02-28T12:43:05.525Z,10.28
2023-02-28T12:45:40.523Z,10.46
2023-02-28T12:48:14.661Z,10.69
2023-02-28T12:50:44.825Z,10.91
2023-02-28T12:53:19.028Z,11.03
2023-02-28T12:55:51.475Z,11.33
2023-02-28T12:58:27.582Z,11.13
2023-02-28T13:01:16.266Z,11.06
2023-02-28T13:04:08.869Z,11.30
2023-02-28T13:07:18.194Z,11.29
2023-02-28T13:09:55.261Z,11.23
2023-02-28T13:12:23.881Z,11.21
2023-02-28T13:15:02.158Z,11.51
2023-02-28T13:17:30.512Z,11.31
2023-02-28T13:19:59.703Z,10.98
2023-02-28T13:22:43.436Z,10.64
2023-02-28T13:25:46.808Z,10.33
2023-02-28T13:29:07.898Z,9.88
2023-02-28T13:32:08.619Z,9.31
2023-02-28T13:34:37.920Z,9.59
2023-02-28T13:37:38.337Z,9.81
2023-02-28T13:40:33.543Z,10.04
2023-02-28T13:43:01.355Z,10.23
2023-02-28T13:45:31.048Z,10.01
2023-02-28T13:48:02.875Z,9.59
2023-02-28T13:50:35.027Z,9.76
2023-02-28T13:53:39.308Z,9.73
2023-02-28T13:56:22.225Z,9.27
2023-02-28T13:58:56.218Z,9.11
2023-02-28T14:01:50.458Z,8.89
2023-02-28T14:04:49.483Z,8.52
2023-02-28T14:07:22.674Z,8.15
2023-02-28T14:09:57.837Z,8.25
2023-02-28T14:12:59.314Z,8.85
2023-02-28T14:15:40.946Z,9.32
2023-02-28T14:18:19.644Z,9.57
2023-02-28T14:20:50.066Z,9.22
2023-02-28T14:23:33.379Z,9.20
2023-02-28T14:26:08.583Z,8.77
2023-02-28T14:29:01.275Z,8.48
2023-02-28T14:31:34.665Z,8.43
2023-02-28T14:34:25.048Z,8.46
2023-02-28T14:36:54.607Z,8.43
2023-02-28T14:39:26.985Z,8.42
2023-02-28T14:41:54.635Z,8.49
2023-02-28T14:44:25.453Z,8.63
2023-02-28T14:46:56.710Z,8.67
2023-02-28T14:49:28.990Z,8.71
2023-02-28T14:52:07.338Z,8.55
2023-02-28T14:54:35.581Z,8.64
2023-02-28T14:57:03.575Z,8.63
2023-02-28T14:59:34.688Z,8.85
2023-02-28T15:02:22.851Z,8.79
2023-02-28T15:04:55.617Z,8.45
2023-02-28T15:07:23.422Z,8.46
2023-02-28T15:10:08.362Z,8.31
2023-02-28T15:12:38.476Z,8.31
2023-02-28T15:15:16.674Z,8.32
2023-02-28T15:17:47.925Z,8.56
2023-02-28T15:20:18.206Z,8.30
2023-02-28T15:22:49.127Z,8.04
2023-02-28T15:25:21.124Z,7.92
2023-02-28T15:27:51.149Z,7.86
2023-02-28T15:30:24.919Z,7.79
2023-02-28T15:33:20.177Z,7.33
2023-02-28T15:35:48.621Z,7.24
2023-02-28T15:38:19.551Z,7.03
2023-02-28T15:40:51.295Z,6.94
2023-02-28T15:43:25.493Z,6.58
2023-02-28T15:45:59.054Z,6.54
2023-02-28T15:48:29.787Z,6.44
2023-02-28T15:51:02.258Z,6.29
2023-02-28T15:53:33.887Z,6.11
2023-02-28T15:56:04.539Z,6.14
2023-02-28T15:58:32.757Z,6.09
2023-02-28T16:01:20.893Z,6.07
2023-02-28T16:03:51.186Z,5.77
2023-02-28T16:06:40.912Z,5.75
2023-02-28T16:09:11.681Z,5.75
2023-02-28T16:11:46.023Z,5.50
2023-02-28T16:14:17.814Z,5.50
2023-02-28T16:16:50.259Z,5.55
2023-02-28T16:19:17.982Z,5.60
2023-02-28T16:21:46.386Z,5.54
2023-02-28T16:24:14.072Z,5.66
2023-02-28T16:26:46.509Z,5.80
2023-02-28T16:29:20.186Z,5.73
2023-02-28T16:31:50.257Z,5.62
2023-02-28T16:34:17.825Z,5.48
2023-02-28T16:36:52.015Z,5.42
2023-02-28T16:39:19.574Z,5.37
2023-02-28T16:41:49.337Z,5.26
2023-02-28T16:44:26.247Z,5.16
2023-02-28T16:46:56.302Z,4.94
2023-02-28T16:49:25.165Z,4.95
2023-02-28T16:51:53.742Z,4.92
2023-02-28T16:54:21.486Z,4.60
2023-02-28T16:56:50.823Z,4.61
2023-02-28T16:59:22.656Z,4.66
2023-02-28T17:01:52.037Z,4.42
2023-02-28T17:04:21.325Z,4.26
2023-02-28T17:06:49.397Z,4.37
2023-02-28T17:09:18.697Z,4.40
2023-02-28T17:11:47.803Z,4.40
2023-02-28T17:14:16.530Z,4.37
2023-02-28T17:16:45.063Z,4.32
2023-02-28T17:19:15.596Z,4.20
2023-02-28T17:21:46.113Z,4.10
2023-02-28T17:24:16.592Z,3.99
2023-02-28T17:26:47.743Z,4.03
2023-02-28T17:29:18.342Z,4.06
2023-02-28T17:31:46.738Z,3.93
2023-02-28T17:34:15.023Z,3.97
2023-02-28T17:36:48.121Z,3.91
2023-02-28T17:39:17.445Z,3.87
2023-02-28T17:41:45.740Z,3.82
2023-02-28T17:44:13.231Z,3.73
2023-02-28T17:46:43.017Z,3.52
2023-02-28T17:49:11.270Z,3.58
2023-02-28T17:51:39.457Z,3.41
2023-02-28T17:54:08.770Z,3.26
2023-02-28T17:56:36.936Z,3.19
2023-02-28T17:59:04.636Z,3.00
2023-02-28T18:01:32.949Z,2.96
2023-02-28T18:04:01.228Z,2.92
2023-02-28T18:06:36.084Z,2.88
2023-02-28T18:09:03.925Z,2.76
2023-02-28T18:11:33.680Z,2.64
2023-02-28T18:14:01.328Z,2.39
2023-02-28T18:16:30.171Z,1.97
2023-02-28T18:18:58.016Z,1.86
2023-02-28T18:21:26.631Z,1.89
2023-02-28T18:23:57.419Z,2.09
2023-02-28T18:26:26.133Z,1.96
2023-02-28T18:28:55.534Z,1.79
2023-02-28T18:31:23.862Z,1.85
2023-02-28T18:33:53.246Z,1.80
2023-02-28T18:36:22.170Z,1.91
2023-02-28T18:38:50.679Z,2.08
2023-02-28T18:41:19.784Z,2.12
2023-02-28T18:43:48.102Z,1.95
2023-02-28T18:46:19.173Z,1.90
2023-02-28T18:48:47.743Z,1.82
2023-02-28T18:51:18.021Z,1.80
2023-02-28T18:53:46.012Z,1.75
2023-02-28T18:56:19.857Z,1.80
2023-02-28T18:58:47.749Z,1.81
2023-02-28T19:01:22.256Z,1.86
2023-02-28T19:03:50.991Z,1.87
2023-02-28T19:06:22.684Z,1.85
2023-02-28T19:08:54.540Z,1.93
2023-02-28T19:11:23.411Z,1.88
2023-02-28T19:13:51.436Z,1.91
2023-02-28T19:16:22.146Z,1.99
2023-02-28T19:18:50.323Z,1.90
2023-02-28T19:21:20.523Z,1.90
2023-02-28T19:23:50.723Z,1.95
2023-02-28T19:26:20.559Z,1.78
2023-02-28T19:28:50.855Z,1.59
2023-02-28T19:31:22.775Z,1.50
2023-02-28T19:33:53.812Z,1.33
2023-02-28T19:36:22.656Z,1.15
2023-02-28T19:38:50.960Z,1.15
2023-02-28T19:41:19.743Z,1.29
2023-02-28T19:43:49.166Z,1.26
2023-02-28T19:46:17.480Z,1.29
2023-02-28T19:48:46.759Z,1.32
2023-02-28T19:53:48.604Z,1.28
2023-02-28T19:56:16.827Z,1.20
2023-02-28T19:58:44.738Z,1.11
2023-02-28T20:01:14.344Z,1.08
2023-02-28T20:03:43.371Z,1.17
2023-02-28T20:06:13.001Z,1.17
2023-02-28T20:08:40.747Z,1.00
2023-02-28T20:11:10.706Z,1.05
2023-02-28T20:13:42.983Z,1.18
2023-02-28T20:16:11.850Z,1.20
2023-02-28T20:18:42.437Z,1.21
2023-02-28T20:21:13.268Z,1.01
2023-02-28T20:23:41.769Z,0.93
2023-02-28T20:26:10.169Z,1.03
2023-02-28T20:28:38.285Z,1.07
2023-02-28T20:31:11.328Z,1.09
2023-02-28T20:33:39.486Z,1.04
2023-02-28T20:36:07.634Z,1.00
2023-02-28T20:38:36.707Z,1.03
2023-02-28T20:41:05.442Z,1.07
2023-02-28T20:43:33.454Z,1.14
2023-02-28T20:46:01.875Z,1.09
2023-02-28T20:48:30.973Z,1.06
2023-02-28T20:50:59.971Z,1.05
2023-02-28T20:53:29.309Z,1.12
2023-02-28T20:56:00.664Z,1.06
2023-02-28T20:58:33.273Z,0.82
2023-02-28T21:01:02.975Z,0.76
2023-02-28T21:03:31.145Z,0.60
2023-02-28T21:06:03.333Z,0.40
2023-02-28T21:08:35.040Z,0.40
2023-02-28T21:11:07.671Z,0.44
2023-02-28T21:13:35.394Z,0.18
2023-02-28T21:16:05.504Z,0.28
2023-02-28T21:18:34.294Z,0.20
2023-02-28T21:21:03.092Z,0.19
2023-02-28T21:23:31.613Z,0.27
2023-02-28T21:26:04.694Z,0.01
2023-02-28T21:28:35.378Z,0.06
2023-02-28T21:31:04.744Z,0.07
2023-02-28T21:33:32.614Z,0.05
2023-02-28T21:36:02.089Z,0.03
2023-02-28T21:38:29.829Z,-0.05
2023-02-28T21:41:05.516Z,-0.11
2023-02-28T21:43:33.669Z,-0.20
2023-02-28T21:46:02.410Z,-0.25
2023-02-28T21:48:30.148Z,-0.22
2023-02-28T21:50:58.805Z,-0.30
2023-02-28T21:53:26.505Z,-0.36
2023-02-28T21:55:54.602Z,-0.39
2023-02-28T21:58:26.411Z,-0.48
2023-02-28T22:00:54.347Z,-0.76
2023-02-28T22:03:21.959Z,-1.01
2023-02-28T22:05:49.968Z,-0.70
2023-02-28T22:08:17.688Z,-0.65
2023-02-28T22:10:45.720Z,-0.70
2023-02-28T22:13:15.002Z,-0.72
2023-02-28T22:15:44.489Z,-0.69
2023-02-28T22:18:12.092Z,-0.85
2023-02-28T22:20:40.485Z,-0.94
2023-02-28T22:23:08.140Z,-1.25
2023-02-28T22:25:37.870Z,-1.25
2023-02-28T22:28:05.488Z,-1.12
2023-02-28T22:30:33.670Z,-1.11
2023-02-28T22:33:03.057Z,-1.12
2023-02-28T22:35:31.649Z,-1.17
2023-02-28T22:38:00.816Z,-1.25
2023-02-28T22:40:28.848Z,-1.23
2023-02-28T22:42:56.462Z,-1.21
2023-02-28T22:45:26.511Z,-1.16
2023-02-28T22:47:54.830Z,-1.21
2023-02-28T22:50:24.387Z,-1.20
2023-02-28T22:52:52.219Z,-1.32
2023-02-28T22:55:20.451Z,-1.36
2023-02-28T22:57:48.027Z,-1.44
2023-02-28T23:00:16.774Z,-1.31
2023-02-28T23:02:45.361Z,-1.44
2023-02-28T23:05:14.089Z,-1.43
2023-02-28T23:07:43.735Z,-1.58
2023-02-28T23:10:14.652Z,-1.53
2023-02-28T23:12:42.467Z,-1.65
2023-02-28T23:15:12.003Z,-1.56
2023-02-28T23:17:39.542Z,-1.56
2023-02-28T23:20:08.823Z,-1.73
2023-02-28T23:22:39.116Z,-1.79
2023-02-28T23:25:09.179Z,-1.85
2023-02-28T23:27:42.670Z,-1.81
2023-02-28T23:30:12.496Z,-1.83
2023-02-28T23:32:44.383Z,-1.79
2023-02-28T23:35:12.438Z,-1.72
2023-02-28T23:37:40.357Z,-1.76
2023-02-28T23:40:12.011Z,-1.69
2023-02-28T23:42:39.885Z,-1.69
2023-02-28T23:45:09.602Z,-1.59
2023-02-28T23:47:37.295Z,-1.82
2023-02-28T23:50:08.709Z,-1.85
2023-02-28T23:52:36.398Z,-1.87
2023-02-28T23:55:05.434Z,-1.94
2023-02-28T23:57:34.951Z,-2.01
